Time;durP1;ratioP1;P1;durP2;ratioP2;P2;SDS_P1;SDS_P2;PMS_P1;PMS_P2;Temp;Humidity;BMP_temperature;BMP_pressure;BME280_temperature;BME280_humidity;BME280_pressure;Samples;Min_cycle;Max_cycle;Signal;HPM_P1;HPM_P2
2024/04/13 00:00:03;;;;;;;4.72;3.30;;;;;;;;;;5380425;26;20081;-66
2024/04/13 00:02:29;;;;;;;5.00;3.50;;;;;;;;;;5381647;26;20023;-66
2024/04/13 00:04:55;;;;;;;9.50;4.03;;;;;;;;;;5381871;26;19997;-67
2024/04/13 00:07:21;;;;;;;7.22;2.92;;;;;;;;;;5381913;26;20015;-68
2024/04/13 00:09:47;;;;;;;7.85;3.63;;;;;;;;;;5382025;26;20065;-68
2024/04/13 00:12:16;;;;;;;5.05;3.00;;;;;;;;;;5363579;26;20005;-67
2024/04/13 00:14:42;;;;;;;5.28;2.90;;;;;;;;;;5346842;26;20005;-67
2024/04/13 00:17:08;;;;;;;4.65;3.28;;;;;;;;;;5346871;26;20001;-69
2024/04/13 00:19:35;;;;;;;7.15;3.70;;;;;;;;;;5346835;26;20074;-67
2024/04/13 00:22:01;;;;;;;7.28;3.28;;;;;;;;;;5346390;26;20001;-66
2024/04/13 00:24:27;;;;;;;5.20;3.25;;;;;;;;;;5347267;26;20096;-68
2024/04/13 00:26:53;;;;;;;5.78;3.20;;;;;;;;;;5346700;26;20005;-69
2024/04/13 00:29:19;;;;;;;5.13;3.50;;;;;;;;;;5346733;26;20020;-68
2024/04/13 00:31:45;;;;;;;7.43;3.53;;;;;;;;;;5346298;26;20013;-67
2024/04/13 00:34:11;;;;;;;4.40;3.00;;;;;;;;;;5360577;26;20077;-69
2024/04/13 00:36:38;;;;;;;5.32;3.15;;;;;;;;;;5381612;26;20015;-69
2024/04/13 00:39:04;;;;;;;7.90;3.42;;;;;;;;;;5381575;26;20004;-69
2024/04/13 00:41:31;;;;;;;5.25;3.40;;;;;;;;;;5381273;26;20000;-69
2024/04/13 00:43:59;;;;;;;5.38;3.53;;;;;;;;;;5381250;26;20011;-69
2024/04/13 00:46:26;;;;;;;5.53;3.17;;;;;;;;;;5381656;26;20460;-69
2024/04/13 00:48:53;;;;;;;4.07;2.85;;;;;;;;;;5379693;26;20344;-69
2024/04/13 00:51:23;;;;;;;5.45;3.33;;;;;;;;;;5381157;26;20001;-69
2024/04/13 00:53:49;;;;;;;4.68;3.10;;;;;;;;;;5379414;26;20456;-69
2024/04/13 00:56:15;;;;;;;4.43;2.70;;;;;;;;;;5381195;26;20000;-68
2024/04/13 00:58:43;;;;;;;5.90;3.30;;;;;;;;;;5379532;26;20526;-69
2024/04/13 01:01:10;;;;;;;3.60;2.63;;;;;;;;;;5381559;26;20081;-69
2024/04/13 01:03:38;;;;;;;3.40;2.55;;;;;;;;;;5380730;26;20016;-69
2024/04/13 01:06:08;;;;;;;3.83;2.83;;;;;;;;;;5381111;26;20015;-69
2024/04/13 01:08:34;;;;;;;4.45;3.03;;;;;;;;;;5381156;26;20012;-67
2024/04/13 01:11:03;;;;;;;5.35;3.30;;;;;;;;;;5380964;26;20081;-69
2024/04/13 01:13:29;;;;;;;4.90;2.38;;;;;;;;;;5378662;26;20004;-69
2024/04/13 01:15:58;;;;;;;6.30;3.20;;;;;;;;;;5381031;26;20008;-69
2024/04/13 01:18:24;;;;;;;4.40;2.72;;;;;;;;;;5380996;26;20475;-69
2024/04/13 01:20:50;;;;;;;3.80;2.80;;;;;;;;;;5381011;26;20013;-69
2024/04/13 01:23:17;;;;;;;4.70;2.28;;;;;;;;;;5380002;26;20000;-70
2024/04/13 01:25:43;;;;;;;4.28;2.88;;;;;;;;;;5380735;26;20000;-68
2024/04/13 01:28:09;;;;;;;4.80;2.97;;;;;;;;;;5380681;26;20000;-69
2024/04/13 01:30:36;;;;;;;2.67;2.13;;;;;;;;;;5381079;26;20004;-69
2024/04/13 01:33:02;;;;;;;4.07;2.85;;;;;;;;;;5380423;26;20004;-69
2024/04/13 01:35:30;;;;;;;4.30;2.80;;;;;;;;;;5380802;26;20000;-68
2024/04/13 01:37:56;;;;;;;3.65;2.50;;;;;;;;;;5380730;26;20000;-68
2024/04/13 01:40:22;;;;;;;3.45;2.13;;;;;;;;;;5380547;26;20000;-68
2024/04/13 01:42:48;;;;;;;3.05;2.08;;;;;;;;;;5380373;26;20470;-70
2024/04/13 01:45:14;;;;;;;3.78;2.53;;;;;;;;;;5380756;26;20015;-70
2024/04/13 01:47:40;;;;;;;3.97;2.35;;;;;;;;;;5380865;26;20016;-70
2024/04/13 01:50:06;;;;;;;3.00;1.95;;;;;;;;;;5380553;26;19996;-69
2024/04/13 01:52:32;;;;;;;2.75;2.28;;;;;;;;;;5379963;26;20005;-69
2024/04/13 01:54:58;;;;;;;3.70;2.33;;;;;;;;;;5380287;26;20015;-69
2024/04/13 01:57:24;;;;;;;2.92;2.13;;;;;;;;;;5378595;26;20410;-69
2024/04/13 01:59:51;;;;;;;6.10;2.35;;;;;;;;;;5380281;26;20014;-69
2024/04/13 02:02:17;;;;;;;3.05;2.22;;;;;;;;;;5380110;26;20076;-70
2024/04/13 02:04:44;;;;;;;3.28;2.08;;;;;;;;;;5380338;26;20019;-69
2024/04/13 02:07:10;;;;;;;3.47;1.90;;;;;;;;;;5380394;26;20107;-69
2024/04/13 02:09:37;;;;;;;2.92;2.05;;;;;;;;;;5380313;26;20008;-69
2024/04/13 02:12:03;;;;;;;2.90;1.90;;;;;;;;;;5379406;26;20095;-69
2024/04/13 02:14:29;;;;;;;2.15;1.73;;;;;;;;;;5380163;26;20375;-68
2024/04/13 02:16:55;;;;;;;3.40;2.42;;;;;;;;;;5380313;26;20015;-67
2024/04/13 02:19:22;;;;;;;3.97;1.90;;;;;;;;;;5380139;26;20011;-68
2024/04/13 02:21:48;;;;;;;5.22;2.00;;;;;;;;;;5379904;26;20386;-68
2024/04/13 02:24:14;;;;;;;2.70;2.08;;;;;;;;;;5379903;26;20015;-68
2024/04/13 02:26:40;;;;;;;3.42;1.77;;;;;;;;;;5380157;26;20004;-67
2024/04/13 02:29:06;;;;;;;3.38;1.75;;;;;;;;;;5380145;26;20040;-68
2024/04/13 02:31:33;;;;;;;2.50;1.65;;;;;;;;;;5379714;26;20000;-67
2024/04/13 02:33:59;;;;;;;3.58;1.60;;;;;;;;;;5379153;26;20077;-67
2024/04/13 02:36:25;;;;;;;2.30;1.67;;;;;;;;;;5379122;26;20004;-67
2024/04/13 02:38:51;;;;;;;2.60;1.50;;;;;;;;;;5379689;26;20016;-67
2024/04/13 02:41:19;;;;;;;2.28;1.15;;;;;;;;;;5379803;26;20482;-67
2024/04/13 02:43:45;;;;;;;2.47;1.70;;;;;;;;;;5379654;26;20015;-67
2024/04/13 02:46:11;;;;;;;3.92;1.98;;;;;;;;;;5379909;26;20001;-67
2024/04/13 02:48:42;;;;;;;1.58;1.33;;;;;;;;;;5379729;26;20471;-67
2024/04/13 02:51:13;;;;;;;;;;;;;;;;;;5380229;26;20003;-67
2024/04/13 02:53:40;;;;;;;1.38;1.23;;;;;;;;;;5379552;26;20364;-67
2024/04/13 02:56:06;;;;;;;2.22;1.55;;;;;;;;;;5379673;26;20001;-67
2024/04/13 02:58:32;;;;;;;2.58;1.40;;;;;;;;;;5379868;26;20000;-67
2024/04/13 03:00:59;;;;;;;1.63;1.35;;;;;;;;;;5379559;26;20472;-68
2024/04/13 03:03:26;;;;;;;1.50;1.25;;;;;;;;;;5379627;26;20004;-68
2024/04/13 03:06:02;;;;;;;2.17;1.48;;;;;;;;;;5380173;26;20008;-68
2024/04/13 03:08:28;;;;;;;2.17;1.38;;;;;;;;;;5379769;26;20604;-68
2024/04/13 03:10:58;;;;;;;2.30;1.50;;;;;;;;;;5379510;26;20015;-68
2024/04/13 03:13:24;;;;;;;2.15;1.30;;;;;;;;;;5378962;26;20055;-69
2024/04/13 03:15:58;;;;;;;3.85;1.35;;;;;;;;;;5379470;26;20487;-68
2024/04/13 03:18:26;;;;;;;3.35;1.30;;;;;;;;;;5379437;26;20000;-68
2024/04/13 03:20:52;;;;;;;3.22;1.33;;;;;;;;;;5379228;26;20013;-68
2024/04/13 03:23:18;;;;;;;2.30;1.13;;;;;;;;;;5379074;26;20000;-68
2024/04/13 03:25:44;;;;;;;1.20;1.10;;;;;;;;;;5379398;26;20054;-67
2024/04/13 03:28:10;;;;;;;1.48;1.25;;;;;;;;;;5379251;26;20001;-67
2024/04/13 03:30:36;;;;;;;1.77;1.20;;;;;;;;;;5379330;26;20417;-67
2024/04/13 03:33:03;;;;;;;1.75;1.23;;;;;;;;;;5379021;26;20004;-67
2024/04/13 03:35:29;;;;;;;1.80;0.93;;;;;;;;;;5379133;26;20015;-68
2024/04/13 03:37:57;;;;;;;1.85;1.33;;;;;;;;;;5378847;26;20000;-67
2024/04/13 03:40:23;;;;;;;1.98;1.33;;;;;;;;;;5377233;26;19996;-67
2024/04/13 03:42:49;;;;;;;1.65;1.45;;;;;;;;;;5376589;26;20015;-68
2024/04/13 03:45:16;;;;;;;1.60;1.23;;;;;;;;;;5378552;26;20000;-68
2024/04/13 03:47:43;;;;;;;1.20;1.00;;;;;;;;;;5381910;26;20083;-68
2024/04/13 03:50:09;;;;;;;1.20;1.10;;;;;;;;;;5382276;26;20000;-68
2024/04/13 03:52:35;;;;;;;2.42;0.88;;;;;;;;;;5381698;26;20004;-68
2024/04/13 03:55:01;;;;;;;1.15;0.88;;;;;;;;;;5381920;26;20073;-69
2024/04/13 03:57:27;;;;;;;1.05;0.95;;;;;;;;;;5382347;26;20010;-68
2024/04/13 03:59:53;;;;;;;1.73;0.90;;;;;;;;;;5382160;26;20000;-69
2024/04/13 04:02:19;;;;;;;1.70;1.30;;;;;;;;;;5381898;26;20000;-69
2024/04/13 04:04:46;;;;;;;1.10;0.73;;;;;;;;;;5382080;26;20004;-68
2024/04/13 04:07:12;;;;;;;2.38;1.13;;;;;;;;;;5381979;26;20407;-68
2024/04/13 04:09:38;;;;;;;1.55;1.27;;;;;;;;;;5381902;26;20007;-68
2024/04/13 04:12:04;;;;;;;1.10;1.00;;;;;;;;;;5381204;26;20078;-68
2024/04/13 04:14:30;;;;;;;1.00;0.93;;;;;;;;;;5381906;26;20020;-66
2024/04/13 04:16:56;;;;;;;1.25;1.00;;;;;;;;;;5381899;26;20004;-67
2024/04/13 04:19:22;;;;;;;2.00;1.10;;;;;;;;;;5381835;26;20015;-67
2024/04/13 04:21:48;;;;;;;1.00;0.80;;;;;;;;;;5381581;26;20015;-66
2024/04/13 04:24:15;;;;;;;1.33;0.63;;;;;;;;;;5381606;26;20020;-67
2024/04/13 04:26:41;;;;;;;1.10;1.00;;;;;;;;;;5381919;26;20012;-65
2024/04/13 04:29:07;;;;;;;1.48;1.25;;;;;;;;;;5382041;26;20004;-65
2024/04/13 04:31:33;;;;;;;1.88;1.15;;;;;;;;;;5381872;26;20004;-67
2024/04/13 04:34:00;;;;;;;1.17;0.90;;;;;;;;;;5382320;26;20001;-68
2024/04/13 04:36:26;;;;;;;2.92;1.00;;;;;;;;;;5381984;26;20004;-67
2024/04/13 04:38:52;;;;;;;0.95;0.80;;;;;;;;;;5382136;26;20426;-67
2024/04/13 04:41:18;;;;;;;1.48;0.90;;;;;;;;;;5381828;26;20011;-68
2024/04/13 04:43:44;;;;;;;2.22;1.15;;;;;;;;;;5381726;26;20001;-66
2024/04/13 04:46:10;;;;;;;1.33;0.93;;;;;;;;;;5381876;26;19996;-66
2024/04/13 04:48:36;;;;;;;4.30;1.00;;;;;;;;;;5381832;26;20004;-66
2024/04/13 04:51:03;;;;;;;2.83;1.05;;;;;;;;;;5382174;26;20098;-66
2024/04/13 04:53:29;;;;;;;2.15;1.23;;;;;;;;;;5381659;26;20012;-65
2024/04/13 04:55:58;;;;;;;2.65;0.82;;;;;;;;;;5381600;26;20008;-65
2024/04/13 04:58:24;;;;;;;1.30;0.80;;;;;;;;;;5380763;26;20000;-65
2024/04/13 05:00:50;;;;;;;1.25;0.85;;;;;;;;;;5381230;26;20005;-65
2024/04/13 05:03:16;;;;;;;1.70;1.25;;;;;;;;;;5381002;26;20036;-64
2024/04/13 05:05:45;;;;;;;2.15;1.15;;;;;;;;;;5381271;26;20000;-64
2024/04/13 05:08:11;;;;;;;1.40;1.15;;;;;;;;;;5381343;26;20001;-66
2024/04/13 05:10:37;;;;;;;1.92;1.00;;;;;;;;;;5378854;26;20003;-66
2024/04/13 05:13:03;;;;;;;1.48;1.23;;;;;;;;;;5380742;26;19996;-67
2024/04/13 05:15:29;;;;;;;2.15;0.90;;;;;;;;;;5380778;26;20007;-67
2024/04/13 05:17:55;;;;;;;1.42;0.80;;;;;;;;;;5379456;26;20000;-69
2024/04/13 05:20:21;;;;;;;2.10;0.90;;;;;;;;;;5381145;26;19992;-68
2024/04/13 05:22:48;;;;;;;7.53;1.23;;;;;;;;;;5380990;26;19996;-69
2024/04/13 05:25:14;;;;;;;2.47;1.00;;;;;;;;;;5379419;26;19996;-69
2024/04/13 05:27:40;;;;;;;3.63;1.60;;;;;;;;;;5381127;26;20011;-69
2024/04/13 05:30:07;;;;;;;6.03;1.23;;;;;;;;;;5383435;26;20000;-69
2024/04/13 05:32:34;;;;;;;5.72;1.20;;;;;;;;;;5389558;26;20079;-69
2024/04/13 05:35:00;;;;;;;1.65;0.90;;;;;;;;;;5382583;26;20011;-67
2024/04/13 05:37:26;;;;;;;2.05;0.90;;;;;;;;;;5381604;26;20075;-67
2024/04/13 05:39:52;;;;;;;5.38;1.27;;;;;;;;;;5384079;26;20423;-66
2024/04/13 05:42:18;;;;;;;1.20;0.95;;;;;;;;;;5388393;26;20082;-67
2024/04/13 05:44:44;;;;;;;3.70;0.95;;;;;;;;;;5386264;26;20008;-67
2024/04/13 05:47:10;;;;;;;3.90;1.17;;;;;;;;;;5380308;26;20472;-67
2024/04/13 05:49:36;;;;;;;2.28;1.50;;;;;;;;;;5380015;26;20011;-67
2024/04/13 05:52:03;;;;;;;0.98;0.70;;;;;;;;;;5379387;26;20023;-67
2024/04/13 05:54:29;;;;;;;0.70;0.63;;;;;;;;;;5380346;26;20000;-67
2024/04/13 05:56:56;;;;;;;1.55;0.80;;;;;;;;;;5380672;26;20000;-67
2024/04/13 05:59:22;;;;;;;3.25;0.70;;;;;;;;;;5380428;26;20000;-67
2024/04/13 06:01:48;;;;;;;1.75;1.00;;;;;;;;;;5377210;26;20459;-66
2024/04/13 06:04:14;;;;;;;0.68;0.68;;;;;;;;;;5379473;26;20081;-66
2024/04/13 06:06:41;;;;;;;3.65;0.50;;;;;;;;;;5379525;26;20008;-67
2024/04/13 06:09:07;;;;;;;1.25;0.70;;;;;;;;;;5376587;26;20004;-66
2024/04/13 06:11:33;;;;;;;1.05;0.77;;;;;;;;;;5374331;26;20000;-66
2024/04/13 06:13:59;;;;;;;0.90;0.70;;;;;;;;;;5377354;26;20562;-66
2024/04/13 06:16:25;;;;;;;1.08;0.63;;;;;;;;;;5378370;26;20039;-67
2024/04/13 06:18:52;;;;;;;1.20;0.70;;;;;;;;;;5376772;26;20083;-65
2024/04/13 06:21:18;;;;;;;2.00;0.80;;;;;;;;;;5378676;26;20000;-66
2024/04/13 06:23:44;;;;;;;1.05;0.40;;;;;;;;;;5378616;26;20036;-67
2024/04/13 06:26:11;;;;;;;1.02;0.50;;;;;;;;;;5415556;21;20007;-64
2024/04/13 06:28:38;;;;;;;2.40;1.02;;;;;;;;;;5391205;26;20008;-66
2024/04/13 06:31:04;;;;;;;3.90;1.42;;;;;;;;;;5378623;26;20028;-66
2024/04/13 06:33:30;;;;;;;4.22;1.10;;;;;;;;;;5377086;26;20004;-64
2024/04/13 06:35:56;;;;;;;4.47;1.20;;;;;;;;;;5377292;26;20077;-63
2024/04/13 06:38:23;;;;;;;18.38;2.38;;;;;;;;;;5378347;26;20012;-63
2024/04/13 06:40:50;;;;;;;8.13;1.27;;;;;;;;;;5379164;26;20074;-65
2024/04/13 06:43:16;;;;;;;14.20;2.30;;;;;;;;;;5379474;26;20015;-63
2024/04/13 06:45:42;;;;;;;21.52;3.10;;;;;;;;;;5379382;26;20073;-63
2024/04/13 06:48:08;;;;;;;18.13;3.20;;;;;;;;;;5379561;26;20019;-62
2024/04/13 06:50:34;;;;;;;5.68;2.60;;;;;;;;;;5379381;26;20008;-63
2024/04/13 06:53:00;;;;;;;6.53;2.55;;;;;;;;;;5379117;26;20004;-62
2024/04/13 06:55:27;;;;;;;6.00;2.72;;;;;;;;;;5379078;26;20002;-62
2024/04/13 06:57:52;;;;;;;6.65;2.33;;;;;;;;;;5379371;26;20036;-62
2024/04/13 07:00:19;;;;;;;6.72;2.10;;;;;;;;;;5379204;26;20005;-63
2024/04/13 07:02:45;;;;;;;3.35;2.08;;;;;;;;;;5378143;26;20015;-63
2024/04/13 07:05:11;;;;;;;7.07;2.13;;;;;;;;;;5377007;26;20023;-62
2024/04/13 07:07:37;;;;;;;4.45;2.40;;;;;;;;;;5378854;26;19997;-62
2024/04/13 07:10:04;;;;;;;4.38;2.30;;;;;;;;;;5376585;26;20006;-63
2024/04/13 07:12:30;;;;;;;5.05;2.30;;;;;;;;;;5377610;26;19996;-63
2024/04/13 07:14:56;;;;;;;3.53;1.98;;;;;;;;;;5379008;26;19996;-63
2024/04/13 07:17:22;;;;;;;4.85;1.90;;;;;;;;;;5378857;26;20340;-61
2024/04/13 07:19:48;;;;;;;7.45;1.75;;;;;;;;;;5378946;26;20019;-62
2024/04/13 07:22:14;;;;;;;5.57;1.63;;;;;;;;;;5379660;26;20000;-62
2024/04/13 07:24:40;;;;;;;3.47;1.63;;;;;;;;;;5382084;26;20388;-61
2024/04/13 07:27:06;;;;;;;2.70;1.48;;;;;;;;;;5382593;26;19997;-63
2024/04/13 07:29:32;;;;;;;3.33;1.60;;;;;;;;;;5382097;26;20000;-63
2024/04/13 07:31:58;;;;;;;3.00;1.50;;;;;;;;;;5381472;26;19997;-62
2024/04/13 07:34:24;;;;;;;3.63;1.40;;;;;;;;;;5382089;26;20011;-63
2024/04/13 07:36:50;;;;;;;2.33;1.45;;;;;;;;;;5382139;26;19996;-62
2024/04/13 07:39:16;;;;;;;7.03;1.63;;;;;;;;;;5382012;26;20074;-63
2024/04/13 07:41:42;;;;;;;3.50;1.67;;;;;;;;;;5379333;26;19996;-63
2024/04/13 07:44:08;;;;;;;3.38;1.23;;;;;;;;;;5379665;26;20035;-62
2024/04/13 07:46:34;;;;;;;3.90;1.27;;;;;;;;;;5380358;26;20035;-62
2024/04/13 07:49:00;;;;;;;6.55;1.67;;;;;;;;;;5378981;26;20000;-63
2024/04/13 07:51:27;;;;;;;4.18;1.17;;;;;;;;;;5378106;26;19996;-63
2024/04/13 07:53:53;;;;;;;4.25;1.20;;;;;;;;;;5380456;26;20004;-62
2024/04/13 07:56:19;;;;;;;2.97;1.27;;;;;;;;;;5386853;26;20000;-63
2024/04/13 07:58:47;;;;;;;2.35;1.17;;;;;;;;;;5388242;26;20000;-63
2024/04/13 08:01:13;;;;;;;2.58;1.33;;;;;;;;;;5389267;26;20000;-63
2024/04/13 08:03:39;;;;;;;1.60;1.00;;;;;;;;;;5385202;26;20000;-63
2024/04/13 08:06:07;;;;;;;1.27;0.98;;;;;;;;;;5383485;26;20000;-62
2024/04/13 08:08:36;;;;;;;2.03;1.05;;;;;;;;;;5383725;26;20035;-62
2024/04/13 08:11:02;;;;;;;1.95;1.25;;;;;;;;;;5382070;26;20107;-63
2024/04/13 08:13:29;;;;;;;3.08;1.30;;;;;;;;;;5381744;26;20012;-63
2024/04/13 08:15:55;;;;;;;3.70;1.63;;;;;;;;;;5381687;26;20094;-63
2024/04/13 08:18:21;;;;;;;6.15;0.88;;;;;;;;;;5381558;26;20008;-63
2024/04/13 08:20:47;;;;;;;2.95;1.13;;;;;;;;;;5381411;26;20356;-62
2024/04/13 08:23:14;;;;;;;1.75;0.90;;;;;;;;;;5381359;26;20000;-63
2024/04/13 08:25:40;;;;;;;2.42;0.90;;;;;;;;;;5379675;26;20004;-63
2024/04/13 08:28:06;;;;;;;1.80;0.90;;;;;;;;;;5379604;26;20004;-62
2024/04/13 08:30:33;;;;;;;4.00;0.90;;;;;;;;;;5381031;26;20467;-63
2024/04/13 08:32:59;;;;;;;1.20;0.77;;;;;;;;;;5379575;26;20664;-62
2024/04/13 08:35:25;;;;;;;2.72;0.98;;;;;;;;;;5379433;26;20010;-62
2024/04/13 08:37:51;;;;;;;3.08;1.20;;;;;;;;;;5381247;26;20609;-62
2024/04/13 08:40:17;;;;;;;2.10;1.25;;;;;;;;;;5381155;26;20000;-63
2024/04/13 08:42:46;;;;;;;1.88;0.80;;;;;;;;;;5380753;26;20019;-61
2024/04/13 08:45:12;;;;;;;3.58;1.08;;;;;;;;;;5380699;26;20145;-62
2024/04/13 08:47:39;;;;;;;4.65;1.13;;;;;;;;;;5381036;26;20015;-63
2024/04/13 08:50:06;;;;;;;3.28;1.50;;;;;;;;;;5381079;26;20098;-63
2024/04/13 08:52:32;;;;;;;2.58;1.50;;;;;;;;;;5380848;26;20029;-63
2024/04/13 08:54:58;;;;;;;2.33;1.15;;;;;;;;;;5381028;26;20001;-64
2024/04/13 08:57:25;;;;;;;3.78;1.27;;;;;;;;;;5381121;26;20000;-63
2024/04/13 08:59:52;;;;;;;3.30;1.27;;;;;;;;;;5381047;26;20012;-63
2024/04/13 09:02:22;;;;;;;5.00;1.33;;;;;;;;;;5380397;26;20363;-63
2024/04/13 09:04:53;;;;;;;3.88;1.50;;;;;;;;;;5380860;26;20332;-63
2024/04/13 09:07:20;;;;;;;3.80;1.48;;;;;;;;;;5381716;26;20004;-63
2024/04/13 09:09:47;;;;;;;4.45;1.75;;;;;;;;;;5381283;26;20040;-63
2024/04/13 09:12:13;;;;;;;2.20;1.50;;;;;;;;;;5381111;26;20004;-63
2024/04/13 09:14:39;;;;;;;5.07;1.63;;;;;;;;;;5381128;26;20008;-63
2024/04/13 09:17:05;;;;;;;2.92;1.88;;;;;;;;;;5383570;26;20000;-63
2024/04/13 09:19:32;;;;;;;3.00;1.30;;;;;;;;;;5389695;26;20015;-63
2024/04/13 09:21:58;;;;;;;2.40;1.15;;;;;;;;;;5390229;26;20001;-64
2024/04/13 09:24:25;;;;;;;2.75;1.25;;;;;;;;;;5391292;26;20016;-63
2024/04/13 09:26:51;;;;;;;2.05;1.25;;;;;;;;;;5391603;26;20004;-63
2024/04/13 09:29:27;;;;;;;2.95;1.30;;;;;;;;;;5390698;26;20015;-64
2024/04/13 09:31:53;;;;;;;2.08;1.38;;;;;;;;;;5388866;26;20011;-64
2024/04/13 09:34:19;;;;;;;1.40;0.93;;;;;;;;;;5382263;26;20004;-63
2024/04/13 09:36:47;;;;;;;1.65;1.10;;;;;;;;;;5381365;26;20484;-64
2024/04/13 09:39:19;;;;;;;4.07;1.77;;;;;;;;;;5380803;26;20019;-63
2024/04/13 09:41:46;;;;;;;2.30;1.38;;;;;;;;;;5380315;26;20001;-63
2024/04/13 09:44:12;;;;;;;1.88;1.00;;;;;;;;;;5379839;26;20092;-63
2024/04/13 09:46:38;;;;;;;1.90;1.05;;;;;;;;;;5380378;26;20468;-63
2024/04/13 09:49:04;;;;;;;2.40;1.30;;;;;;;;;;5380414;26;20000;-63
2024/04/13 09:51:30;;;;;;;2.03;1.05;;;;;;;;;;5380096;26;20004;-64
2024/04/13 09:53:56;;;;;;;1.20;1.08;;;;;;;;;;5380207;26;20004;-63
2024/04/13 09:56:22;;;;;;;3.05;1.25;;;;;;;;;;5380221;26;20471;-63
2024/04/13 09:58:50;;;;;;;3.40;1.10;;;;;;;;;;5380118;26;20081;-63
2024/04/13 10:01:16;;;;;;;3.80;1.25;;;;;;;;;;5380279;26;20000;-64
2024/04/13 10:03:42;;;;;;;1.40;1.05;;;;;;;;;;5379988;26;20004;-63
2024/04/13 10:06:11;;;;;;;2.78;1.52;;;;;;;;;;5378492;26;20354;-63
2024/04/13 10:08:39;;;;;;;2.65;1.58;;;;;;;;;;5380179;26;20004;-64
2024/04/13 10:11:06;;;;;;;1.98;1.20;;;;;;;;;;5380107;26;20401;-63
2024/04/13 10:13:34;;;;;;;1.55;0.95;;;;;;;;;;5379692;26;20007;-64
2024/04/13 10:16:01;;;;;;;2.03;1.10;;;;;;;;;;5379903;26;20095;-63
2024/04/13 10:18:27;;;;;;;1.77;1.10;;;;;;;;;;5379852;26;20004;-63
2024/04/13 10:20:56;;;;;;;2.92;0.95;;;;;;;;;;5379995;26;20430;-63
2024/04/13 10:23:22;;;;;;;3.72;1.40;;;;;;;;;;5379739;26;20015;-63
2024/04/13 10:25:56;;;;;;;1.23;0.80;;;;;;;;;;5379811;26;19996;-63
2024/04/13 10:28:23;;;;;;;1.10;0.88;;;;;;;;;;5380002;26;20004;-63
2024/04/13 10:30:50;;;;;;;1.88;1.25;;;;;;;;;;5380142;26;20019;-64
2024/04/13 10:33:20;;;;;;;1.30;0.95;;;;;;;;;;5382861;26;20082;-63
2024/04/13 10:36:02;;;;;;;1.25;0.90;;;;;;;;;;5381953;26;20085;-63
2024/04/13 10:38:35;;;;;;;3.95;1.40;;;;;;;;;;5382896;26;20000;-63
2024/04/13 10:41:02;;;;;;;2.20;1.13;;;;;;;;;;5381560;26;20019;-62
2024/04/13 10:43:29;;;;;;;1.50;0.93;;;;;;;;;;5381921;26;20015;-63
2024/04/13 10:45:59;;;;;;;3.40;1.15;;;;;;;;;;5381257;26;20004;-64
2024/04/13 10:48:29;;;;;;;1.83;1.17;;;;;;;;;;5379901;26;20000;-63
2024/04/13 10:50:56;;;;;;;0.85;0.85;;;;;;;;;;5379503;26;20000;-63
2024/04/13 10:53:27;;;;;;;0.95;0.60;;;;;;;;;;5379377;26;20005;-63
2024/04/13 10:55:55;;;;;;;1.73;1.17;;;;;;;;;;5378404;26;20016;-64
2024/04/13 10:58:26;;;;;;;1.38;1.10;;;;;;;;;;5379422;26;20000;-63
2024/04/13 11:00:54;;;;;;;1.83;0.82;;;;;;;;;;5379448;26;20081;-64
2024/04/13 11:03:20;;;;;;;1.80;0.80;;;;;;;;;;5378985;26;20000;-63
2024/04/13 11:05:46;;;;;;;0.95;0.82;;;;;;;;;;5379439;26;20348;-64
2024/04/13 11:08:13;;;;;;;0.60;0.60;;;;;;;;;;5379173;26;20019;-63
2024/04/13 11:10:42;;;;;;;1.17;0.82;;;;;;;;;;5379045;26;20004;-63
2024/04/13 11:13:08;;;;;;;1.13;1.02;;;;;;;;;;5378877;26;20437;-63
2024/04/13 11:15:34;;;;;;;0.60;0.60;;;;;;;;;;5379139;26;20019;-63
2024/04/13 11:18:01;;;;;;;1.40;0.95;;;;;;;;;;5379190;26;20004;-63
2024/04/13 11:20:29;;;;;;;0.75;0.65;;;;;;;;;;5379082;26;20000;-64
2024/04/13 11:22:56;;;;;;;0.80;0.68;;;;;;;;;;5378803;26;20480;-63
2024/04/13 11:25:22;;;;;;;0.57;0.55;;;;;;;;;;5378672;26;20012;-63
2024/04/13 11:27:48;;;;;;;1.25;0.65;;;;;;;;;;5378576;26;20523;-63
2024/04/13 11:30:14;;;;;;;0.88;0.75;;;;;;;;;;5377632;26;20000;-64
2024/04/13 11:32:40;;;;;;;0.68;0.63;;;;;;;;;;5378487;26;20015;-64
2024/04/13 11:35:16;;;;;;;0.57;0.57;;;;;;;;;;5378837;26;20070;-63
2024/04/13 11:37:42;;;;;;;1.95;0.95;;;;;;;;;;5378710;26;20456;-63
2024/04/13 11:40:08;;;;;;;1.05;0.70;;;;;;;;;;5378883;26;20000;-64
2024/04/13 11:42:38;;;;;;;0.98;0.60;;;;;;;;;;5378230;26;20015;-63
2024/04/13 11:45:05;;;;;;;2.72;1.20;;;;;;;;;;5378497;26;20036;-64
2024/04/13 11:47:31;;;;;;;1.23;0.85;;;;;;;;;;5378299;26;20018;-64
2024/04/13 11:49:57;;;;;;;1.00;0.90;;;;;;;;;;5378618;26;20008;-64
2024/04/13 11:52:24;;;;;;;1.50;0.88;;;;;;;;;;5377984;26;20004;-63
2024/04/13 11:54:50;;;;;;;1.00;0.65;;;;;;;;;;5378260;26;20012;-63
2024/04/13 11:57:16;;;;;;;1.50;0.93;;;;;;;;;;5378766;26;20355;-63
2024/04/13 11:59:42;;;;;;;1.00;0.80;;;;;;;;;;5378372;26;20004;-63
2024/04/13 12:02:09;;;;;;;0.95;0.82;;;;;;;;;;5377850;26;20472;-63
2024/04/13 12:04:35;;;;;;;3.45;0.95;;;;;;;;;;5378102;26;20074;-63
2024/04/13 12:07:01;;;;;;;1.27;0.80;;;;;;;;;;5379011;26;20012;-63
2024/04/13 12:09:27;;;;;;;1.08;0.95;;;;;;;;;;5381762;26;20016;-63
2024/04/13 12:11:53;;;;;;;0.77;0.70;;;;;;;;;;5381294;26;20015;-63
2024/04/13 12:14:19;;;;;;;1.33;0.98;;;;;;;;;;5381832;26;20354;-65
2024/04/13 12:16:47;;;;;;;1.17;0.90;;;;;;;;;;5381653;26;20016;-63
2024/04/13 12:19:13;;;;;;;2.17;0.90;;;;;;;;;;5382253;26;19997;-63
2024/04/13 12:21:39;;;;;;;2.35;1.13;;;;;;;;;;5381731;26;20632;-63
2024/04/13 12:24:05;;;;;;;1.73;1.00;;;;;;;;;;5381956;26;20804;-63
2024/04/13 12:26:33;;;;;;;0.93;0.70;;;;;;;;;;5368443;21;20546;-65
2024/04/13 12:28:59;;;;;;;0.85;0.70;;;;;;;;;;5345008;26;20364;-66
2024/04/13 12:31:25;;;;;;;0.85;0.70;;;;;;;;;;5345221;26;20341;-65
2024/04/13 12:33:51;;;;;;;0.75;0.60;;;;;;;;;;5344832;26;20076;-65
2024/04/13 12:36:17;;;;;;;1.20;0.95;;;;;;;;;;5344961;26;20082;-66
2024/04/13 12:38:43;;;;;;;0.63;0.52;;;;;;;;;;5344689;26;20352;-66
2024/04/13 12:41:13;;;;;;;1.15;0.88;;;;;;;;;;5345258;26;20015;-65
2024/04/13 12:43:39;;;;;;;0.93;0.90;;;;;;;;;;5344665;26;20422;-65
2024/04/13 12:46:05;;;;;;;0.45;0.45;;;;;;;;;;5345196;26;19997;-66
2024/04/13 12:48:31;;;;;;;1.67;0.70;;;;;;;;;;5346302;26;20001;-66
2024/04/13 12:50:57;;;;;;;1.52;0.88;;;;;;;;;;5346150;26;20012;-65
2024/04/13 12:53:23;;;;;;;0.95;0.47;;;;;;;;;;5346148;26;20008;-63
2024/04/13 12:55:51;;;;;;;1.80;0.68;;;;;;;;;;5346181;26;20016;-66
2024/04/13 12:58:18;;;;;;;1.55;0.68;;;;;;;;;;5345992;26;20008;-66
2024/04/13 13:00:44;;;;;;;0.65;0.50;;;;;;;;;;5346177;26;20001;-65
2024/04/13 13:03:10;;;;;;;1.45;0.55;;;;;;;;;;5345951;26;20011;-65
2024/04/13 13:05:36;;;;;;;0.90;0.68;;;;;;;;;;5345981;26;19997;-65
2024/04/13 13:08:02;;;;;;;0.85;0.70;;;;;;;;;;5346268;26;20001;-66
2024/04/13 13:10:28;;;;;;;1.05;0.60;;;;;;;;;;5345797;26;19993;-65
2024/04/13 13:12:54;;;;;;;0.60;0.60;;;;;;;;;;5345786;26;20029;-65
2024/04/13 13:15:20;;;;;;;1.05;0.75;;;;;;;;;;5345818;26;20025;-65
2024/04/13 13:17:46;;;;;;;1.75;0.80;;;;;;;;;;5345906;26;19997;-65
2024/04/13 13:20:12;;;;;;;1.95;0.80;;;;;;;;;;5345017;26;19997;-65
2024/04/13 13:22:38;;;;;;;0.77;0.60;;;;;;;;;;5345674;26;20082;-65
2024/04/13 13:25:04;;;;;;;0.50;0.30;;;;;;;;;;5345375;26;19996;-65
2024/04/13 13:27:30;;;;;;;0.77;0.50;;;;;;;;;;5346126;26;20322;-65
2024/04/13 13:29:56;;;;;;;0.50;0.50;;;;;;;;;;5345807;26;20008;-65
2024/04/13 13:32:24;;;;;;;0.60;0.45;;;;;;;;;;5345253;26;20008;-65
2024/04/13 13:34:50;;;;;;;1.08;0.80;;;;;;;;;;5345764;26;20416;-66
2024/04/13 13:37:16;;;;;;;0.70;0.70;;;;;;;;;;5345578;26;20378;-66
2024/04/13 13:39:42;;;;;;;0.68;0.60;;;;;;;;;;5345401;26;20008;-65
2024/04/13 13:42:08;;;;;;;0.73;0.60;;;;;;;;;;5344970;26;20001;-66
2024/04/13 13:44:34;;;;;;;0.95;0.50;;;;;;;;;;5345615;26;20000;-65
2024/04/13 13:47:00;;;;;;;1.45;0.70;;;;;;;;;;5345284;26;19997;-66
2024/04/13 13:49:26;;;;;;;1.40;0.70;;;;;;;;;;5345470;26;19997;-66
2024/04/13 13:51:52;;;;;;;2.00;0.60;;;;;;;;;;5345054;26;20468;-65
2024/04/13 13:54:18;;;;;;;0.75;0.40;;;;;;;;;;5345299;26;20005;-65
2024/04/13 13:56:44;;;;;;;0.52;0.52;;;;;;;;;;5345365;26;20012;-65
2024/04/13 13:59:10;;;;;;;0.70;0.60;;;;;;;;;;5345303;26;20001;-65
2024/04/13 14:01:36;;;;;;;0.95;0.60;;;;;;;;;;5345355;26;20356;-65
2024/04/13 14:04:03;;;;;;;0.73;0.73;;;;;;;;;;5345261;26;19997;-68
2024/04/13 14:06:29;;;;;;;0.70;0.50;;;;;;;;;;5345248;26;19997;-65
2024/04/13 14:08:55;;;;;;;0.85;0.60;;;;;;;;;;5345046;26;20357;-65
2024/04/13 14:11:21;;;;;;;0.73;0.60;;;;;;;;;;5345097;26;20004;-66
2024/04/13 14:13:47;;;;;;;0.60;0.60;;;;;;;;;;5345006;26;20453;-67
2024/04/13 14:16:13;;;;;;;0.88;0.70;;;;;;;;;;5345222;26;20001;-65
2024/04/13 14:18:39;;;;;;;0.52;0.50;;;;;;;;;;5345236;26;20115;-67
2024/04/13 14:21:05;;;;;;;0.55;0.52;;;;;;;;;;5345054;26;20067;-65
2024/04/13 14:23:31;;;;;;;0.68;0.55;;;;;;;;;;5344635;26;20008;-64
2024/04/13 14:25:57;;;;;;;1.60;0.70;;;;;;;;;;5345029;26;20001;-64
2024/04/13 14:28:23;;;;;;;0.73;0.60;;;;;;;;;;5345007;26;20000;-65
2024/04/13 14:30:49;;;;;;;3.28;0.70;;;;;;;;;;5342974;26;19996;-65
2024/04/13 14:33:15;;;;;;;1.48;0.80;;;;;;;;;;5344498;26;20005;-65
2024/04/13 14:35:43;;;;;;;0.40;0.40;;;;;;;;;;5344809;26;20001;-65
2024/04/13 14:38:10;;;;;;;0.77;0.50;;;;;;;;;;5344748;26;20001;-65